Time;durP1;ratioP1;P1;durP2;ratioP2;P2;SDS_P1;SDS_P2;PMS_P1;PMS_P2;Temp;Humidity;BMP_temperature;BMP_pressure;BME280_temperature;BME280_humidity;BME280_pressure;Samples;Min_cycle;Max_cycle;Signal;HPM_P1;HPM_P2
2023/08/11 00:00:21;;;;;;;13.80;12.23;;;;;;;17.15;100.00;101885.34;5073720;28;20040;-51
2023/08/11 00:02:49;;;;;;;14.50;13.20;;;;;;;17.06;100.00;101873.31;5091607;28;20040;-51
2023/08/11 00:05:17;;;;;;;17.23;12.38;;;;;;;17.15;100.00;101885.34;5091570;28;20028;-50
2023/08/11 00:07:42;;;;;;;13.50;12.20;;;;;;;17.14;100.00;101878.28;5091521;28;20056;-51
2023/08/11 00:10:09;;;;;;;13.27;12.07;;;;;;;17.12;100.00;101881.03;5073533;28;20063;-51
2023/08/11 00:12:35;;;;;;;13.45;12.18;;;;;;;17.11;100.00;101876.63;5093701;28;20043;-54
2023/08/11 00:15:00;;;;;;;15.77;13.05;;;;;;;17.12;100.00;101874.84;5095392;28;20036;-53
2023/08/11 00:17:25;;;;;;;14.30;12.88;;;;;;;16.71;100.00;101808.34;5076974;28;20101;-52
2023/08/11 00:19:51;;;;;;;14.57;12.93;;;;;;;17.10;100.00;101874.94;5095056;28;20036;-52
2023/08/11 00:22:16;;;;;;;16.15;13.77;;;;;;;15.57;100.00;101623.63;5094815;28;20444;-53
2023/08/11 00:24:42;;;;;;;15.02;13.63;;;;;;;16.97;100.00;101854.22;5095069;28;20036;-53
2023/08/11 00:27:07;;;;;;;14.98;13.10;;;;;;;16.93;100.00;101847.31;5094921;28;20476;-56
2023/08/11 00:29:33;;;;;;;13.43;12.23;;;;;;;16.76;100.00;101818.75;5095095;28;20081;-51
2023/08/11 00:32:00;;;;;;;13.38;12.27;;;;;;;16.85;100.00;101839.66;5094488;28;20097;-52
2023/08/11 00:34:25;;;;;;;15.45;13.90;;;;;;;16.97;100.00;101857.75;5076469;28;20495;-51
2023/08/11 00:36:50;;;;;;;14.23;12.93;;;;;;;16.87;100.00;101843.09;5094661;28;20050;-56
2023/08/11 00:39:16;;;;;;;16.38;14.68;;;;;;;16.49;100.00;101772.06;5076857;28;20377;-53
2023/08/11 00:41:41;;;;;;;15.50;13.45;;;;;;;16.91;100.00;101846.50;5094785;28;20036;-51
2023/08/11 00:44:06;;;;;;;16.73;13.50;;;;;;;16.76;100.00;101824.94;5094486;28;20039;-55
2023/08/11 00:46:32;;;;;;;14.32;12.93;;;;;;;16.93;100.00;101852.63;5093854;28;20089;-54
2023/08/11 00:48:58;;;;;;;14.75;13.32;;;;;;;16.64;100.00;101798.88;5093860;28;20040;-55
2023/08/11 00:51:24;;;;;;;14.15;12.77;;;;;;;16.91;100.00;101846.50;5094204;28;20032;-53
2023/08/11 00:53:50;;;;;;;14.45;13.15;;;;;;;16.87;100.00;101859.91;5076253;28;20089;-51
2023/08/11 00:56:19;;;;;;;14.38;12.98;;;;;;;16.78;100.00;101817.75;5076456;28;20040;-55
2023/08/11 00:58:46;;;;;;;17.65;14.85;;;;;;;16.85;100.00;101832.53;5076087;28;20460;-54
2023/08/11 01:01:11;;;;;;;13.70;12.05;;;;;;;16.79;100.00;101839.91;5076091;28;20130;-54
2023/08/11 01:03:36;;;;;;;14.23;12.73;;;;;;;16.78;100.00;101838.19;5093122;28;20131;-53
2023/08/11 01:06:38;;;;;;;15.32;13.57;;;;;;;16.71;100.00;101840.25;5075806;28;20084;-52
2023/08/11 01:09:06;;;;;;;;;;;;;;;16.68;100.00;101837.72;5094461;28;20441;-49
2023/08/11 01:11:51;;;;;;;15.75;13.75;;;;;;;16.25;100.00;101774.81;5094158;28;20333;-51
2023/08/11 01:14:38;;;;;;;14.25;12.95;;;;;;;16.15;100.00;101767.25;5093865;28;20214;-49
2023/08/11 01:17:05;;;;;;;15.27;13.70;;;;;;;16.50;100.00;101830.47;5076030;28;20119;-49
2023/08/11 01:19:35;;;;;;;14.00;12.70;;;;;;;16.20;100.00;101778.56;5093369;28;20036;-48
2023/08/11 01:22:04;;;;;;;14.73;13.20;;;;;;;16.50;100.00;101827.81;5075291;28;20539;-49
2023/08/11 01:24:30;;;;;;;14.77;13.40;;;;;;;16.42;100.00;101813.09;5075667;28;20024;-51
2023/08/11 01:26:57;;;;;;;15.80;14.15;;;;;;;16.42;100.00;101807.78;5075375;28;20032;-54
2023/08/11 01:29:25;;;;;;;15.48;13.88;;;;;;;16.49;100.00;101827.88;5059311;28;20031;-49
2023/08/11 01:31:50;;;;;;;16.65;14.95;;;;;;;16.46;100.00;101825.34;5093601;28;20028;-53
2023/08/11 01:34:16;;;;;;;15.98;14.20;;;;;;;16.30;100.00;101791.44;5093394;28;20471;-55
2023/08/11 01:36:42;;;;;;;16.95;14.20;;;;;;;16.15;100.00;101775.22;5066749;28;20048;-51
2023/08/11 01:39:09;;;;;;;15.75;14.25;;;;;;;16.46;100.00;101828.00;5093525;28;20060;-50
2023/08/11 01:41:35;;;;;;;14.68;13.30;;;;;;;16.44;100.00;101808.56;5093291;28;20174;-53
2023/08/11 01:44:01;;;;;;;15.60;14.10;;;;;;;15.96;100.00;101735.28;5093728;28;20042;-55
2023/08/11 01:46:27;;;;;;;15.27;13.68;;;;;;;16.42;100.00;101827.25;5092540;28;20107;-53
2023/08/11 01:48:55;;;;;;;16.88;14.80;;;;;;;15.98;100.00;101743.19;5075438;28;20035;-52
2023/08/11 01:51:21;;;;;;;16.00;14.50;;;;;;;16.38;100.00;101809.69;5079505;28;20428;-54
2023/08/11 01:53:47;;;;;;;15.60;14.20;;;;;;;16.32;100.00;101810.81;5113546;28;20028;-52
2023/08/11 01:56:12;;;;;;;16.75;15.00;;;;;;;15.89;100.00;101747.06;5113597;28;20089;-55
2023/08/11 01:58:38;;;;;;;14.75;13.25;;;;;;;16.29;100.00;101824.22;5095514;28;20019;-49
2023/08/11 02:01:03;;;;;;;15.20;13.65;;;;;;;16.28;100.00;101822.50;5095390;28;20211;-56
2023/08/11 02:03:29;;;;;;;17.10;13.77;;;;;;;16.28;100.00;101827.81;5113647;28;20110;-49
2023/08/11 02:05:55;;;;;;;15.07;13.60;;;;;;;16.22;100.00;101822.75;5113590;28;20042;-49
2023/08/11 02:08:20;;;;;;;16.70;15.15;;;;;;;16.18;100.00;101839.72;5099741;28;20445;-50
2023/08/11 02:10:46;;;;;;;15.57;14.07;;;;;;;15.69;100.00;101750.53;5074614;28;20118;-51
2023/08/11 02:13:12;;;;;;;15.73;14.13;;;;;;;15.66;100.00;101741.81;5093019;28;20517;-51
2023/08/11 02:15:38;;;;;;;15.68;14.25;;;;;;;15.59;100.00;101738.53;5074887;28;20062;-48
2023/08/11 02:18:04;;;;;;;16.20;14.27;;;;;;;15.99;100.00;101825.47;5092703;28;20043;-51
2023/08/11 02:20:30;;;;;;;15.43;13.82;;;;;;;15.99;100.00;101821.94;5092625;28;20039;-51
2023/08/11 02:22:55;;;;;;;15.57;14.07;;;;;;;15.98;100.00;101826.38;5074889;28;20024;-51
2023/08/11 02:25:25;;;;;;;16.45;14.73;;;;;;;15.52;100.00;101738.84;5091940;28;20039;-51
2023/08/11 02:27:51;;;;;;;15.07;13.57;;;;;;;15.82;100.00;101789.88;5092495;28;20047;-52
2023/08/11 02:30:18;;;;;;;15.23;13.75;;;;;;;15.93;100.00;101823.03;5092566;28;20044;-54
2023/08/11 02:32:45;;;;;;;18.83;14.40;;;;;;;15.80;100.00;101794.34;5074822;28;20089;-53
2023/08/11 02:35:11;;;;;;;15.32;13.57;;;;;;;15.88;100.00;101810.88;5073714;28;20054;-54
2023/08/11 02:37:36;;;;;;;17.60;14.90;;;;;;;15.86;100.00;101804.72;5092376;28;20024;-51
2023/08/11 02:40:02;;;;;;;15.57;14.07;;;;;;;15.40;100.00;101731.31;5057542;28;20059;-50
2023/08/11 02:42:27;;;;;;;17.27;14.75;;;;;;;15.81;100.00;101799.63;5090602;28;20064;-53
2023/08/11 02:44:52;;;;;;;15.32;13.73;;;;;;;15.89;100.00;101808.16;5094663;28;20489;-48
2023/08/11 02:47:18;;;;;;;16.27;14.77;;;;;;;15.89;100.00;101804.63;5094738;28;20043;-53
2023/08/11 02:49:43;;;;;;;15.77;14.18;;;;;;;15.40;100.00;101716.25;5112715;28;20063;-54
2023/08/11 02:52:11;;;;;;;15.50;14.10;;;;;;;15.38;100.00;101717.25;5112594;28;20386;-56
2023/08/11 02:54:36;;;;;;;15.45;14.05;;;;;;;15.38;100.00;101731.34;5112599;28;20065;-53
2023/08/11 02:57:02;;;;;;;15.63;14.20;;;;;;;15.37;100.00;101732.28;5107838;28;20028;-49
2023/08/11 02:59:27;;;;;;;17.02;15.38;;;;;;;15.29;100.00;101717.59;5092679;28;20048;-52
2023/08/11 03:01:52;;;;;;;14.75;13.35;;;;;;;15.77;100.00;101800.66;5092231;28;20032;-48
2023/08/11 03:04:18;;;;;;;15.93;14.02;;;;;;;15.29;100.00;101712.28;5092166;28;20384;-52
2023/08/11 03:06:46;;;;;;;17.38;15.35;;;;;;;15.72;100.00;101786.69;5092167;28;20040;-52
2023/08/11 03:09:12;;;;;;;15.95;14.45;;;;;;;15.71;100.00;101806.19;5091838;28;20126;-52
2023/08/11 03:11:37;;;;;;;18.48;16.55;;;;;;;15.63;100.00;101789.69;5092367;28;20154;-54
2023/08/11 03:14:03;;;;;;;16.73;14.82;;;;;;;15.19;100.00;101714.41;5091685;28;20379;-49
2023/08/11 03:16:29;;;;;;;16.95;14.70;;;;;;;15.53;100.00;101775.03;5092187;28;20028;-50
2023/08/11 03:18:54;;;;;;;17.30;15.60;;;;;;;15.21;100.00;101718.72;5091798;28;20439;-51
2023/08/11 03:21:19;;;;;;;15.80;14.25;;;;;;;15.59;100.00;101785.41;5091900;28;20089;-49
2023/08/11 03:23:45;;;;;;;16.70;15.15;;;;;;;15.58;100.00;101783.72;5091727;28;20036;-52
2023/08/11 03:26:10;;;;;;;17.23;15.25;;;;;;;15.53;100.00;101773.25;5091866;28;20177;-51
2023/08/11 03:28:35;;;;;;;16.83;15.07;;;;;;;15.21;100.00;101725.81;5091599;28;20036;-53
2023/08/11 03:31:01;;;;;;;16.63;14.82;;;;;;;15.45;100.00;101753.22;5091381;28;20055;-48
2023/08/11 03:33:26;;;;;;;16.55;15.00;;;;;;;15.14;100.00;101711.94;5073578;28;20478;-52
2023/08/11 03:35:51;;;;;;;16.13;14.43;;;;;;;15.63;100.00;101787.06;5091714;28;20075;-51
2023/08/11 03:38:17;;;;;;;16.98;15.35;;;;;;;15.53;100.00;101759.97;5091777;28;20028;-48
2023/08/11 03:40:42;;;;;;;16.35;14.88;;;;;;;15.63;100.00;101787.91;5091995;28;20032;-52
2023/08/11 03:43:07;;;;;;;16.25;14.65;;;;;;;15.33;100.00;101721.84;5091736;28;20464;-54
2023/08/11 03:45:34;;;;;;;16.17;14.43;;;;;;;15.61;100.00;101771.19;5092522;28;20032;-52
2023/08/11 03:48:00;;;;;;;16.60;15.05;;;;;;;15.60;100.00;101774.75;5077744;28;20525;-51
2023/08/11 03:50:25;;;;;;;16.77;15.18;;;;;;;15.54;100.00;101767.03;5095689;28;20036;-53
2023/08/11 03:52:50;;;;;;;16.45;14.75;;;;;;;15.53;100.00;101759.13;5077435;28;20028;-52
2023/08/11 03:55:16;;;;;;;16.17;14.55;;;;;;;15.51;100.00;101772.47;5077432;28;20463;-50
2023/08/11 03:57:41;;;;;;;16.85;15.00;;;;;;;15.49;100.00;101757.53;5077669;28;20071;-50
2023/08/11 04:00:14;;;;;;;16.88;15.15;;;;;;;15.49;100.00;101753.09;5095624;28;20028;-51
2023/08/11 04:02:43;;;;;;;16.08;14.38;;;;;;;15.43;100.00;101747.97;5083969;28;20039;-55
2023/08/11 04:05:10;;;;;;;16.88;15.13;;;;;;;15.46;100.00;101749.66;5097970;28;20439;-55
2023/08/11 04:07:38;;;;;;;17.25;15.50;;;;;;;15.18;100.00;101702.94;5098071;28;20040;-55
2023/08/11 04:10:05;;;;;;;16.10;14.55;;;;;;;15.45;100.00;101745.25;5115585;28;20027;-55
2023/08/11 04:12:31;;;;;;;19.02;14.90;;;;;;;15.43;100.00;101744.47;5097626;28;20035;-54
2023/08/11 04:14:56;;;;;;;15.77;14.13;;;;;;;14.93;100.00;101665.00;5115701;28;20040;-49
2023/08/11 04:17:21;;;;;;;15.93;14.32;;;;;;;14.95;100.00;101665.81;5115752;28;20027;-50
2023/08/11 04:19:48;;;;;;;17.77;16.05;;;;;;;15.36;100.00;101733.19;5073765;28;20132;-53
2023/08/11 04:22:13;;;;;;;17.23;15.52;;;;;;;15.36;100.00;101740.28;5095103;28;20071;-54
2023/08/11 04:24:39;;;;;;;16.77;14.98;;;;;;;15.34;100.00;101728.88;5095127;28;20040;-50
2023/08/11 04:27:05;;;;;;;17.27;15.52;;;;;;;15.40;100.00;101731.31;5095041;28;20395;-54
2023/08/11 04:29:30;;;;;;;16.30;14.70;;;;;;;15.39;100.00;101735.75;5077109;28;20034;-52
2023/08/11 04:31:55;;;;;;;16.90;15.35;;;;;;;15.39;100.00;101725.13;5076661;28;20037;-51
2023/08/11 04:34:21;;;;;;;16.45;14.75;;;;;;;15.39;100.00;101724.25;5094511;28;20040;-51
2023/08/11 04:36:46;;;;;;;16.85;15.25;;;;;;;15.41;100.00;101723.28;5094286;28;20102;-50
2023/08/11 04:39:12;;;;;;;15.55;13.98;;;;;;;14.92;100.00;101639.41;5076721;28;20040;-51
2023/08/11 04:41:37;;;;;;;17.92;14.32;;;;;;;15.26;100.00;101699.13;5076371;28;20042;-48
2023/08/11 04:44:04;;;;;;;17.05;14.93;;;;;;;15.38;100.00;101719.91;5076782;28;20062;-54
2023/08/11 04:46:30;;;;;;;15.77;14.32;;;;;;;15.39;100.00;101718.94;5094809;28;20036;-51
2023/08/11 04:48:56;;;;;;;16.05;14.52;;;;;;;15.42;100.00;101721.50;5094602;28;20036;-55
2023/08/11 04:51:21;;;;;;;14.85;13.40;;;;;;;15.45;100.00;101713.41;5094159;28;20046;-52
2023/08/11 04:53:47;;;;;;;15.15;13.75;;;;;;;15.38;100.00;101691.56;5095069;28;20036;-50
2023/08/11 04:56:12;;;;;;;14.80;13.50;;;;;;;15.19;100.00;101656.94;5094453;28;20089;-52
2023/08/11 04:58:39;;;;;;;15.15;13.55;;;;;;;15.13;100.00;101645.69;5093900;28;20036;-52
2023/08/11 05:01:04;;;;;;;15.43;13.95;;;;;;;15.58;100.00;101718.25;5093986;28;20487;-50
2023/08/11 05:03:29;;;;;;;15.07;13.65;;;;;;;15.50;100.00;101708.84;5094261;28;20119;-54
2023/08/11 05:05:55;;;;;;;14.93;13.50;;;;;;;15.61;100.00;101720.78;5076475;28;20028;-49
2023/08/11 05:08:21;;;;;;;15.73;13.40;;;;;;;15.48;100.00;101695.63;5093690;28;20031;-50
2023/08/11 05:10:46;;;;;;;15.40;13.80;;;;;;;15.38;100.00;101674.81;5094046;28;20031;-52
2023/08/11 05:13:12;;;;;;;15.70;13.30;;;;;;;15.72;100.00;101715.03;5076186;28;20043;-47
2023/08/11 05:15:38;;;;;;;16.00;14.15;;;;;;;15.39;100.00;101653.50;5094000;28;20368;-50
2023/08/11 05:18:04;;;;;;;14.27;12.77;;;;;;;15.83;100.00;101711.94;5093993;28;20390;-53
2023/08/11 05:20:29;;;;;;;13.95;12.35;;;;;;;15.45;100.00;101641.78;5093739;28;20040;-53
2023/08/11 05:22:55;;;;;;;15.25;13.65;;;;;;;15.91;100.00;101713.34;5093146;28;20024;-52
2023/08/11 05:25:20;;;;;;;15.18;12.95;;;;;;;15.97;100.00;101713.09;5093837;28;20139;-51
2023/08/11 05:27:47;;;;;;;13.95;12.45;;;;;;;16.01;100.00;101717.38;5110040;28;20482;-54
2023/08/11 05:30:12;;;;;;;14.40;12.85;;;;;;;15.97;100.00;101691.00;5095975;28;20121;-50
2023/08/11 05:32:38;;;;;;;13.90;12.50;;;;;;;15.83;100.00;101654.41;5113945;28;20094;-51
2023/08/11 05:35:03;;;;;;;13.82;12.27;;;;;;;16.27;100.00;101709.19;5114042;28;20516;-50
2023/08/11 05:37:29;;;;;;;15.50;12.32;;;;;;;16.00;100.00;101641.28;5113960;28;20492;-53
2023/08/11 05:39:54;;;;;;;12.57;11.27;;;;;;;16.50;100.00;101710.00;5114007;28;20034;-49
2023/08/11 05:42:20;;;;;;;15.60;10.85;;;;;;;16.60;100.00;101708.72;5092976;28;20110;-53
2023/08/11 05:44:45;;;;;;;17.48;12.60;;;;;;;16.41;100.00;101665.22;5075711;28;20483;-50
2023/08/11 05:47:11;;;;;;;16.73;11.48;;;;;;;16.91;100.00;101722.38;5093352;28;20394;-51
2023/08/11 05:49:36;;;;;;;15.25;11.30;;;;;;;17.05;100.00;101717.28;5093211;28;20050;-52
2023/08/11 05:52:02;;;;;;;11.88;10.13;;;;;;;17.23;100.00;101731.56;5093179;28;20032;-50
2023/08/11 05:54:27;;;;;;;10.48;9.38;;;;;;;16.98;100.00;101668.00;5093387;28;20086;-49
2023/08/11 05:56:54;;;;;;;12.77;9.85;;;;;;;17.54;100.00;101733.69;5093497;28;20032;-49
2023/08/11 05:59:20;;;;;;;13.30;11.13;;;;;;;17.23;100.00;101657.94;5092469;28;20032;-50
2023/08/11 06:01:46;;;;;;;15.63;10.50;;;;;;;17.76;100.00;101721.97;5093137;28;20410;-49
2023/08/11 06:04:11;;;;;;;13.20;9.63;;;;;;;17.57;100.00;101665.19;5093214;28;20035;-51
2023/08/11 06:06:36;;;;;;;13.40;9.32;;;;;;;18.15;100.00;101735.16;5093310;28;20028;-50
2023/08/11 06:09:03;;;;;;;12.52;8.68;;;;;;;17.88;100.00;101675.22;5075267;28;20036;-54
2023/08/11 06:11:28;;;;;;;11.40;9.15;;;;;;;17.94;100.00;101651.81;5075039;28;20042;-51
2023/08/11 06:13:54;;;;;;;12.77;9.18;;;;;;;18.48;100.00;101736.13;5074817;28;20363;-54
2023/08/11 06:16:19;;;;;;;11.73;9.30;;;;;;;18.52;100.00;101724.38;5092465;28;20044;-51
2023/08/11 06:18:44;;;;;;;10.80;8.65;;;;;;;18.31;100.00;101669.47;5092838;28;20028;-52
2023/08/11 06:21:10;;;;;;;11.15;8.35;;;;;;;18.39;100.00;101666.38;5092982;28;20036;-51
2023/08/11 06:23:36;;;;;;;12.10;8.18;;;;;;;18.95;100.00;101746.13;5092930;28;20123;-53
2023/08/11 06:26:01;;;;;;;13.70;9.10;;;;;;;19.04;100.00;101734.97;5074445;28;20114;-51
2023/08/11 06:28:27;;;;;;;13.00;8.40;;;;;;;18.86;100.00;101683.47;5092675;28;20032;-54
2023/08/11 06:30:53;;;;;;;14.57;8.73;;;;;;;18.98;100.00;101682.81;5092326;28;20052;-55
2023/08/11 06:33:19;;;;;;;13.07;9.07;;;;;;;19.49;100.00;101751.22;5092617;28;20032;-51
2023/08/11 06:35:45;;;;;;;14.13;8.40;;;;;;;19.25;100.00;101691.13;5092515;28;20056;-51
2023/08/11 06:38:10;;;;;;;10.30;7.68;;;;;;;19.76;100.00;101745.31;5092730;28;20108;-54
2023/08/11 06:40:38;;;;;;;10.60;7.90;;;;;;;19.85;100.00;101739.44;5092573;28;20043;-53
2023/08/11 06:43:04;;;;;;;11.85;7.82;;;;;;;20.00;100.00;101735.88;5074497;28;20044;-53
2023/08/11 06:45:29;;;;;;;12.05;8.45;;;;;;;20.14;100.00;101750.16;5092384;28;20491;-49
2023/08/11 06:47:55;;;;;;;11.20;7.63;;;;;;;20.10;100.00;101713.03;5066974;28;20455;-57
2023/08/11 06:50:20;;;;;;;9.77;7.15;;;;;;;20.29;100.00;101724.38;5112600;28;20078;-51
2023/08/11 06:52:46;;;;;;;12.48;7.43;;;;;;;20.42;100.00;101716.50;5094287;28;20080;-49
2023/08/11 06:55:11;;;;;;;13.60;7.15;;;;;;;20.67;100.00;101740.81;5094430;28;20027;-56
2023/08/11 06:57:37;;;;;;;9.48;6.60;;;;;;;20.12;100.00;101630.91;5112659;28;20063;-52
2023/08/11 07:00:04;;;;;;;13.13;6.70;;;;;;;20.97;100.00;101764.88;5094489;28;20035;-54
2023/08/11 07:02:29;;;;;;;9.23;6.07;;;;;;;21.15;100.00;101769.13;5112679;28;20093;-53
2023/08/11 07:04:55;;;;;;;8.55;5.90;;;;;;;21.28;100.00;101765.59;5101923;28;20090;-56
2023/08/11 07:07:20;;;;;;;7.07;5.18;;;;;;;21.44;100.00;101772.69;5092161;28;20075;-53
2023/08/11 07:09:45;;;;;;;9.30;6.22;;;;;;;21.23;100.00;101698.09;5092115;28;20040;-56
2023/08/11 07:12:11;;;;;;;6.95;5.07;;;;;;;21.71;100.00;101770.94;5092331;28;20108;-51
2023/08/11 07:14:36;;;;;;;9.27;5.75;;;;;;;21.89;100.00;101769.75;5091995;28;20127;-53
2023/08/11 07:17:02;;;;;;;7.43;5.40;;;;;;;21.99;100.00;101765.53;5092050;28;20471;-51
2023/08/11 07:19:27;;;;;;;10.85;5.97;;;;;;;22.26;100.00;101777.13;5092135;28;20533;-54
2023/08/11 07:21:52;;;;;;;14.10;5.95;;;;;;;22.48;100.00;101763.13;5079624;28;20028;-53
2023/08/11 07:24:18;;;;;;;7.63;4.47;;;;;;;22.54;100.00;101729.66;5098645;28;20079;-55
2023/08/11 07:26:43;;;;;;;7.13;5.03;;;;;;;23.01;100.00;101737.16;5098921;28;20444;-51
2023/08/11 07:29:08;;;;;;;5.35;4.13;;;;;;;23.79;100.00;101781.72;5080560;28;20372;-54
2023/08/11 07:31:34;;;;;;;11.50;4.60;;;;;;;24.40;100.00;101797.72;5080489;28;20379;-51
2023/08/11 07:33:59;;;;;;;7.65;4.50;;;;;;;24.62;100.00;101743.13;5080447;28;20407;-52
2023/08/11 07:36:24;;;;;;;7.47;4.57;;;;;;;25.21;100.00;101756.50;5098309;28;20079;-55
2023/08/11 07:38:50;;;;;;;7.00;4.60;;;;;;;26.09;100.00;101804.16;5097448;28;20032;-52
2023/08/11 07:41:15;;;;;;;8.73;4.45;;;;;;;26.43;100.00;101807.63;5097814;28;20040;-51
2023/08/11 07:43:40;;;;;;;9.00;5.50;;;;;;;26.44;100.00;101763.47;5098648;28;20035;-54
2023/08/11 07:46:06;;;;;;;6.35;4.22;;;;;;;27.00;100.00;101804.56;5096901;28;20024;-55
2023/08/11 07:48:31;;;;;;;5.60;4.63;;;;;;;26.97;100.00;101769.72;5080536;28;20043;-55
2023/08/11 07:50:56;;;;;;;9.05;4.95;;;;;;;27.73;100.00;101823.34;5098438;28;20036;-52
2023/08/11 07:53:22;;;;;;;8.60;4.93;;;;;;;28.05;100.00;101831.31;5098351;28;20035;-57
2023/08/11 07:55:47;;;;;;;6.20;5.07;;;;;;;28.34;100.00;101822.25;5097278;28;20490;-55
2023/08/11 07:58:12;;;;;;;6.13;4.78;;;;;;;28.30;100.00;101837.06;5098307;28;20036;-55
2023/08/11 08:00:38;;;;;;;7.90;5.70;;;;;;;27.93;100.00;101817.84;5098231;28;20063;-57
2023/08/11 08:03:04;;;;;;;8.45;5.47;;;;;;;27.78;100.00;101815.69;5098220;28;20028;-57
2023/08/11 08:05:30;;;;;;;9.18;5.40;;;;;;;27.02;100.00;101759.34;5098051;28;20403;-55
2023/08/11 08:07:55;;;;;;;8.40;5.38;;;;;;;26.65;100.00;101761.63;5098570;28;20028;-52
2023/08/11 08:10:20;;;;;;;9.57;4.72;;;;;;;26.92;100.00;101821.44;5098301;28;20081;-57
2023/08/11 08:12:46;;;;;;;6.57;4.97;;;;;;;26.56;100.00;101776.75;5097981;28;20032;-56
2023/08/11 08:15:12;;;;;;;7.28;5.00;;;;;;;26.76;100.00;101815.59;5079950;28;20096;-55
2023/08/11 08:17:39;;;;;;;8.10;4.55;;;;;;;26.58;100.00;101792.84;5098208;28;20111;-55
2023/08/11 08:20:08;;;;;;;6.00;4.25;;;;;;;26.57;100.00;101810.88;5096943;28;20043;-54
2023/08/11 08:22:33;;;;;;;12.70;5.68;;;;;;;26.33;100.00;101793.19;5098096;28;20024;-53
2023/08/11 08:24:58;;;;;;;10.93;4.80;;;;;;;25.82;100.00;101747.06;5097975;28;20093;-57
2023/08/11 08:27:24;;;;;;;4.18;3.45;;;;;;;25.70;100.00;101751.63;5098008;28;20036;-54
2023/08/11 08:29:53;;;;;;;7.80;4.53;;;;;;;25.74;100.00;101745.81;5097396;28;20131;-56
2023/08/11 08:32:21;;;;;;;8.25;4.05;;;;;;;26.68;100.00;101826.16;5076460;28;20044;-52
2023/08/11 08:34:48;;;;;;;9.27;4.25;;;;;;;27.10;100.00;101762.25;5094972;28;20052;-54
2023/08/11 08:37:14;;;;;;;8.07;4.05;;;;;;;28.16;100.00;101815.81;5094922;28;20032;-57
2023/08/11 08:39:40;;;;;;;6.13;4.30;;;;;;;28.95;100.00;101830.16;5094468;28;20115;-54
2023/08/11 08:42:05;;;;;;;7.00;4.20;;;;;;;29.22;100.00;101823.97;5094358;28;20314;-56
2023/08/11 08:44:32;;;;;;;6.65;4.75;;;;;;;29.17;100.00;101843.38;5076604;28;20090;-54
2023/08/11 08:46:59;;;;;;;5.07;4.45;;;;;;;28.79;100.00;101822.59;5094059;28;20563;-55
2023/08/11 08:49:26;;;;;;;7.82;3.88;;;;;;;28.62;100.00;101763.69;5060173;28;20425;-52
2023/08/11 08:51:52;;;;;;;6.95;4.13;;;;;;;28.73;100.00;101770.81;5076251;28;20024;-56
2023/08/11 08:54:18;;;;;;;6.22;3.90;;;;;;;29.22;100.00;101789.53;5076298;28;20471;-57
2023/08/11 08:56:43;;;;;;;6.85;4.22;;;;;;;30.22;100.00;101839.44;5094465;28;20055;-54
2023/08/11 08:59:08;;;;;;;7.90;3.90;;;;;;;30.76;100.00;101841.22;5094460;28;20505;-55
2023/08/11 09:01:35;;;;;;;6.93;4.22;;;;;;;30.75;100.00;101793.28;5093189;28;20048;-55
2023/08/11 09:04:01;;;;;;;5.35;3.88;;;;;;;30.56;100.00;101797.00;5094419;28;20043;-56
2023/08/11 09:06:26;;;;;;;5.05;3.97;;;;;;;31.04;100.00;101850.13;5059444;28;20047;-53
2023/08/11 09:08:52;;;;;;;5.35;3.95;;;;;;;31.03;100.00;101786.72;5094404;28;20032;-57
2023/08/11 09:11:18;;;;;;;4.50;4.07;;;;;;;30.87;100.00;101804.75;5093905;28;20036;-55
2023/08/11 09:13:45;;;;;;;9.82;4.97;;;;;;;30.08;100.00;101739.47;5094358;28;20067;-57
2023/08/11 09:16:14;;;;;;;4.55;3.67;;;;;;;30.16;100.00;101783.00;5075680;28;20119;-57
2023/08/11 09:18:40;;;;;;;6.80;4.20;;;;;;;30.60;100.00;101827.47;5076100;28;20035;-54
2023/08/11 09:21:06;;;;;;;9.13;4.18;;;;;;;30.64;100.00;101846.03;5092416;28;20024;-53
2023/08/11 09:23:36;;;;;;;9.90;4.25;;;;;;;30.66;100.00;101833.13;5094045;28;20100;-54
2023/08/11 09:26:02;;;;;;;6.78;4.10;;;;;;;30.55;100.00;101768.16;5093683;28;20114;-56
2023/08/11 09:28:27;;;;;;;4.82;3.78;;;;;;;31.28;100.00;101835.88;5076128;28;20064;-52
2023/08/11 09:30:54;;;;;;;6.32;4.10;;;;;;;31.05;100.00;101786.59;5075808;28;20119;-56
2023/08/11 09:33:22;;;;;;;6.22;3.85;;;;;;;31.10;100.00;101765.19;5092984;28;20044;-54
2023/08/11 09:35:48;;;;;;;4.10;3.72;;;;;;;31.60;100.00;101822.47;5093476;28;20048;-53
2023/08/11 09:38:13;;;;;;;6.97;3.58;;;;;;;31.63;100.00;101819.44;5093821;28;20116;-53
2023/08/11 09:40:41;;;;;;;5.22;3.80;;;;;;;31.67;100.00;101854.31;5093159;28;20058;-56
2023/08/11 09:43:06;;;;;;;6.03;4.00;;;;;;;31.72;100.00;101838.38;5075293;28;20494;-54
2023/08/11 09:45:32;;;;;;;4.82;3.67;;;;;;;32.03;100.00;101835.97;5093740;28;20057;-55
2023/08/11 09:47:57;;;;;;;10.10;4.43;;;;;;;32.07;100.00;101812.84;5079306;28;20409;-54
2023/08/11 09:50:26;;;;;;;6.70;4.03;;;;;;;31.89;100.00;101793.00;5113617;28;20039;-57
2023/08/11 09:52:51;;;;;;;4.80;3.72;;;;;;;32.33;100.00;101850.88;5095793;28;20019;-55
2023/08/11 09:55:18;;;;;;;4.60;3.78;;;;;;;32.00;100.00;101841.72;5078482;28;20054;-56
2023/08/11 09:57:44;;;;;;;5.97;3.70;;;;;;;31.94;100.00;101812.41;5095579;28;20096;-56
2023/08/11 10:00:13;;;;;;;11.02;4.05;;;;;;;32.19;100.00;101838.78;5095537;28;20028;-56
2023/08/11 10:03:11;;;;;;;10.10;8.50;;;;;;;32.67;100.00;101809.91;5095780;28;20038;-53
2023/08/11 10:05:42;;;;;;;6.75;3.45;;;;;;;33.10;100.00;101857.84;5108440;28;20122;-54
2023/08/11 10:08:10;;;;;;;6.18;3.60;;;;;;;32.76;100.00;101796.09;5075183;28;20036;-53
2023/08/11 10:10:36;;;;;;;9.63;4.13;;;;;;;32.82;100.00;101784.50;5091565;28;20035;-55
2023/08/11 10:13:07;;;;;;;8.68;4.30;;;;;;;33.24;100.00;101847.09;5074951;28;20077;-57
2023/08/11 10:15:34;;;;;;;9.18;3.75;;;;;;;33.35;100.00;101848.59;5074748;28;20540;-57
2023/08/11 10:18:01;;;;;;;6.30;3.22;;;;;;;33.21;100.00;101783.81;5074726;28;20464;-58
2023/08/11 10:20:27;;;;;;;5.75;3.95;;;;;;;34.05;100.00;101851.47;5091951;28;20035;-53
2023/08/11 10:22:52;;;;;;;6.53;3.25;;;;;;;34.30;100.00;101847.59;5093095;28;20028;-56
2023/08/11 10:25:17;;;;;;;5.30;3.20;;;;;;;34.00;100.00;101857.47;5093072;28;20040;-52
2023/08/11 10:27:43;;;;;;;8.90;3.42;;;;;;;33.53;100.00;101805.56;5093001;28;20442;-50
2023/08/11 10:30:11;;;;;;;4.88;2.72;;;;;;;34.24;100.00;101843.69;5074228;28;20107;-54
2023/08/11 10:32:36;;;;;;;4.63;3.20;;;;;;;34.49;100.00;101852.59;5074306;28;20115;-53
2023/08/11 10:35:06;;;;;;;4.47;3.70;;;;;;;34.65;100.00;101859.88;5074270;28;20147;-56
2023/08/11 10:37:32;;;;;;;9.60;3.80;;;;;;;34.72;100.00;101848.03;5073951;28;20032;-54
2023/08/11 10:40:09;;;;;;;5.53;3.92;;;;;;;34.94;100.00;101858.09;5074201;28;20024;-53
2023/08/11 10:42:38;;;;;;;4.60;3.20;;;;;;;35.24;100.00;101861.78;5092331;28;20073;-53
2023/08/11 10:45:12;;;;;;;7.23;3.53;;;;;;;35.26;100.00;101815.09;5074208;28;20372;-56
2023/08/11 10:47:51;;;;;;;5.50;3.33;;;;;;;35.56;100.00;101809.44;5074509;28;20031;-53
2023/08/11 10:50:18;;;;;;;6.90;3.27;;;;;;;35.31;100.00;101846.34;5092443;28;20107;-54
2023/08/11 10:52:45;;;;;;;4.18;3.67;;;;;;;35.17;100.00;101868.19;5091521;28;20420;-54
2023/08/11 10:55:10;;;;;;;5.95;4.75;;;;;;;34.05;100.00;101878.78;5073657;28;20031;-51
2023/08/11 10:57:36;;;;;;;5.00;3.70;;;;;;;33.21;100.00;101857.50;5092763;28;20395;-55
2023/08/11 11:00:01;;;;;;;7.60;5.32;;;;;;;31.75;100.00;101797.22;5091883;28;20039;-54
2023/08/11 11:02:26;;;;;;;6.90;3.33;;;;;;;32.44;100.00;101855.16;5092412;28;20028;-56